Главная страница
METAR-TAF:

METAR-TAF

Аэропорты :

Яссы, Румыния

широта: 47-10N, долгота: 027-38E, высота над уровнем моря: 102 м

Текущие метеонаблюдения

Эта сводка был подготовлена 13 минут назад, в 07:00 UTC
Ветер 5 Узел от западно-северо-западный, изменяющийся между западный и северно-северо-западный
Температура 14°C
Влажность 72%
Давление 1020 hPa
Видимость: 7000 м

METAR: LRIA 200700Z 30005KT 270V340 7000 NSC 14/09 Q1020

Время: 10:13 (07:13 UTC)

Прогноз

Эта сводка был подготовлена 2 часа и 13 минут назад, в 05:00 UTC
Прогноз действительный с 20-го 06 UTC до 20-го 15 UTC
Ветер 8 Узел от северо-западный
Видимость 10 км и более
Нет облачности ниже 1500 м, и нет кучево-дождевой облачности
временами
С 20-го 06 UTC до 20-го 08 UTC
Видимость: 5000 м
дымка

TAF: LRIA 200500Z 2006/2015 31008KT CAVOK TEMPO 2006/2008 5000 BR

Метеонаблюдения и прогнозы для более 4000 аэропортов (сводки METAR и TAF).

Имеющиеся станции представлены на карте желтыми и красными точками.

Чтобы увидеть название станции, наведите на нее мышь.

Затем щелкните, чтобы увидеть метеонаблюдения и метеопрогнозы.

Управление картой: чтобы увеличить масштаб, щелкните зеленые кнопки с черным крестиком; чтобы уменьшить масштаб, щелкните зеленую кнопку с тире; для просмотра соседних карт щелкайте зеленые стрелки.


METAR-TAF: